sensor_id;sensor_type;location;lat;lon;timestamp;pressure;altitude;pressure_sealevel;temperature;humidity
72409;BME280;60402;48.082;11.628;2024-03-23T00:56:09;94761.31;;;8.60;100.00
72409;BME280;60402;48.082;11.628;2024-03-23T00:58:54;94759.53;;;8.54;100.00
72409;BME280;60402;48.082;11.628;2024-03-23T01:01:40;94782.31;;;8.72;100.00
72409;BME280;60402;48.082;11.628;2024-03-23T01:04:26;94770.25;;;8.72;100.00
72409;BME280;60402;48.082;11.628;2024-03-23T01:07:11;94748.94;;;8.58;100.00
72409;BME280;60402;48.082;11.628;2024-03-23T01:09:57;94746.91;;;8.58;100.00
72409;BME280;60402;48.082;11.628;2024-03-23T01:12:43;94743.50;;;8.51;100.00
72409;BME280;60402;48.082;11.628;2024-03-23T01:15:28;94740.16;;;8.43;100.00
72409;BME280;60402;48.082;11.628;2024-03-23T01:18:14;94732.78;;;8.33;100.00
72409;BME280;60402;48.082;11.628;2024-03-23T01:21:00;94709.88;;;8.18;100.00
72409;BME280;60402;48.082;11.628;2024-03-23T01:23:45;94750.00;;;8.35;100.00
72409;BME280;60402;48.082;11.628;2024-03-23T01:26:31;94721.59;;;8.16;100.00
72409;BME280;60402;48.082;11.628;2024-03-23T01:29:17;94745.81;;;8.27;100.00
72409;BME280;60402;48.082;11.628;2024-03-23T01:32:02;94733.75;;;8.13;100.00
72409;BME280;60402;48.082;11.628;2024-03-23T01:34:48;94740.13;;;8.01;100.00
72409;BME280;60402;48.082;11.628;2024-03-23T01:37:34;94734.72;;;7.94;100.00
72409;BME280;60402;48.082;11.628;2024-03-23T01:40:20;94724.47;;;7.87;100.00
72409;BME280;60402;48.082;11.628;2024-03-23T01:43:07;94738.75;;;7.93;100.00
72409;BME280;60402;48.082;11.628;2024-03-23T01:45:53;94718.94;;;7.84;100.00
72409;BME280;60402;48.082;11.628;2024-03-23T01:48:39;94725.25;;;7.88;100.00
72409;BME280;60402;48.082;11.628;2024-03-23T01:51:25;94717.69;;;7.85;100.00
72409;BME280;60402;48.082;11.628;2024-03-23T01:54:12;94699.88;;;7.75;100.00
72409;BME280;60402;48.082;11.628;2024-03-23T01:56:58;94711.28;;;7.84;100.00
72409;BME280;60402;48.082;11.628;2024-03-23T01:59:44;94697.84;;;7.76;100.00
72409;BME280;60402;48.082;11.628;2024-03-23T02:02:30;94697.53;;;7.74;100.00
72409;BME280;60402;48.082;11.628;2024-03-23T02:05:16;94686.03;;;7.68;100.00
72409;BME280;60402;48.082;11.628;2024-03-23T02:08:02;94688.31;;;7.73;100.00
72409;BME280;60402;48.082;11.628;2024-03-23T02:10:51;94709.69;;;7.83;100.00
72409;BME280;60402;48.082;11.628;2024-03-23T02:13:36;94702.16;;;7.80;100.00
72409;BME280;60402;48.082;11.628;2024-03-23T02:16:22;94689.09;;;7.74;100.00
72409;BME280;60402;48.082;11.628;2024-03-23T02:19:08;94665.44;;;7.58;100.00
72409;BME280;60402;48.082;11.628;2024-03-23T02:21:54;94674.66;;;7.59;100.00
72409;BME280;60402;48.082;11.628;2024-03-23T02:24:39;94664.75;;;7.54;100.00
72409;BME280;60402;48.082;11.628;2024-03-23T02:27:25;94661.31;;;7.47;100.00
72409;BME280;60402;48.082;11.628;2024-03-23T02:30:11;94680.03;;;7.53;100.00
72409;BME280;60402;48.082;11.628;2024-03-23T02:32:56;94683.50;;;7.57;100.00
72409;BME280;60402;48.082;11.628;2024-03-23T02:35:43;94686.53;;;7.50;100.00
72409;BME280;60402;48.082;11.628;2024-03-23T02:38:29;94677.25;;;7.37;100.00
72409;BME280;60402;48.082;11.628;2024-03-23T02:41:14;94658.03;;;7.35;100.00
72409;BME280;60402;48.082;11.628;2024-03-23T02:44:01;94655.41;;;7.28;100.00
72409;BME280;60402;48.082;11.628;2024-03-23T02:46:46;94643.84;;;7.26;100.00
72409;BME280;60402;48.082;11.628;2024-03-23T02:49:32;94648.56;;;7.29;100.00
72409;BME280;60402;48.082;11.628;2024-03-23T02:52:17;94640.25;;;7.26;100.00
72409;BME280;60402;48.082;11.628;2024-03-23T02:55:04;94645.50;;;7.24;100.00
72409;BME280;60402;48.082;11.628;2024-03-23T02:57:50;94638.31;;;7.23;100.00
72409;BME280;60402;48.082;11.628;2024-03-23T03:00:35;94645.84;;;7.26;100.00
72409;BME280;60402;48.082;11.628;2024-03-23T03:03:21;94648.75;;;7.22;100.00
72409;BME280;60402;48.082;11.628;2024-03-23T03:06:06;94640.88;;;7.17;100.00
72409;BME280;60402;48.082;11.628;2024-03-23T03:08:52;94639.19;;;7.20;100.00
72409;BME280;60402;48.082;11.628;2024-03-23T03:11:38;94631.28;;;7.14;100.00
72409;BME280;60402;48.082;11.628;2024-03-23T03:14:23;94631.84;;;7.09;100.00
72409;BME280;60402;48.082;11.628;2024-03-23T03:17:09;94636.72;;;7.22;100.00
72409;BME280;60402;48.082;11.628;2024-03-23T03:19:54;94605.97;;;7.02;100.00
72409;BME280;60402;48.082;11.628;2024-03-23T03:22:41;94633.91;;;7.22;100.00
72409;BME280;60402;48.082;11.628;2024-03-23T03:25:26;94617.00;;;7.09;100.00
72409;BME280;60402;48.082;11.628;2024-03-23T03:28:12;94621.84;;;7.08;100.00
72409;BME280;60402;48.082;11.628;2024-03-23T03:30:58;94622.16;;;7.10;100.00
72409;BME280;60402;48.082;11.628;2024-03-23T03:33:44;94608.09;;;6.98;100.00
72409;BME280;60402;48.082;11.628;2024-03-23T03:36:30;94605.28;;;6.98;100.00
72409;BME280;60402;48.082;11.628;2024-03-23T03:39:16;94591.41;;;6.90;100.00
72409;BME280;60402;48.082;11.628;2024-03-23T03:45:54;94596.50;;;6.96;100.00
72409;BME280;60402;48.082;11.628;2024-03-23T03:48:40;94587.97;;;6.99;100.00
72409;BME280;60402;48.082;11.628;2024-03-23T03:51:26;94600.44;;;7.27;100.00
72409;BME280;60402;48.082;11.628;2024-03-23T03:54:11;94590.06;;;7.24;100.00
72409;BME280;60402;48.082;11.628;2024-03-23T03:56:57;94605.00;;;7.50;100.00
72409;BME280;60402;48.082;11.628;2024-03-23T03:59:43;94571.25;;;7.37;100.00
72409;BME280;60402;48.082;11.628;2024-03-23T04:02:28;94586.56;;;7.49;100.00
72409;BME280;60402;48.082;11.628;2024-03-23T04:05:14;94571.97;;;7.54;100.00
72409;BME280;60402;48.082;11.628;2024-03-23T04:08:00;94582.88;;;7.65;100.00
72409;BME280;60402;48.082;11.628;2024-03-23T04:10:45;94576.69;;;7.70;100.00
72409;BME280;60402;48.082;11.628;2024-03-23T04:13:31;94562.09;;;7.62;100.00
72409;BME280;60402;48.082;11.628;2024-03-23T04:16:27;94579.75;;;7.76;100.00
72409;BME280;60402;48.082;11.628;2024-03-23T04:19:13;94550.16;;;7.58;100.00
72409;BME280;60402;48.082;11.628;2024-03-23T04:21:59;94543.50;;;7.52;100.00
72409;BME280;60402;48.082;11.628;2024-03-23T04:24:45;94536.66;;;7.53;100.00
72409;BME280;60402;48.082;11.628;2024-03-23T04:27:30;94543.28;;;7.59;100.00
72409;BME280;60402;48.082;11.628;2024-03-23T04:30:16;94555.00;;;7.71;100.00
72409;BME280;60402;48.082;11.628;2024-03-23T04:33:03;94534.06;;;7.59;100.00
72409;BME280;60402;48.082;11.628;2024-03-23T04:35:49;94539.72;;;7.72;100.00
72409;BME280;60402;48.082;11.628;2024-03-23T04:38:35;94515.63;;;7.58;100.00
72409;BME280;60402;48.082;11.628;2024-03-23T04:41:21;94521.38;;;7.54;100.00
72409;BME280;60402;48.082;11.628;2024-03-23T04:44:07;94524.97;;;7.55;100.00
72409;BME280;60402;48.082;11.628;2024-03-23T04:46:52;94512.03;;;7.45;100.00
72409;BME280;60402;48.082;11.628;2024-03-23T04:49:38;94506.16;;;7.52;100.00
72409;BME280;60402;48.082;11.628;2024-03-23T04:52:24;94520.81;;;7.59;100.00
72409;BME280;60402;48.082;11.628;2024-03-23T04:55:09;94520.13;;;7.55;100.00
72409;BME280;60402;48.082;11.628;2024-03-23T04:57:55;94508.00;;;7.58;100.00
72409;BME280;60402;48.082;11.628;2024-03-23T05:00:41;94506.38;;;7.57;100.00
72409;BME280;60402;48.082;11.628;2024-03-23T05:03:26;94478.41;;;7.41;100.00
72409;BME280;60402;48.082;11.628;2024-03-23T05:06:12;94467.94;;;7.41;100.00
72409;BME280;60402;48.082;11.628;2024-03-23T05:08:57;94478.28;;;7.45;100.00
72409;BME280;60402;48.082;11.628;2024-03-23T05:11:43;94475.13;;;7.42;100.00
72409;BME280;60402;48.082;11.628;2024-03-23T05:14:29;94442.75;;;7.25;100.00
72409;BME280;60402;48.082;11.628;2024-03-23T05:17:14;94452.53;;;7.33;100.00
72409;BME280;60402;48.082;11.628;2024-03-23T05:20:00;94456.47;;;7.49;100.00
72409;BME280;60402;48.082;11.628;2024-03-23T05:22:46;94446.81;;;7.50;99.24
72409;BME280;60402;48.082;11.628;2024-03-23T05:25:31;94457.69;;;7.48;99.93
72409;BME280;60402;48.082;11.628;2024-03-23T05:28:18;94474.25;;;7.58;100.00
72409;BME280;60402;48.082;11.628;2024-03-23T05:31:03;94472.13;;;7.62;99.71
72409;BME280;60402;48.082;11.628;2024-03-23T05:33:49;94474.47;;;7.64;99.28
72409;BME280;60402;48.082;11.628;2024-03-23T05:36:35;94461.41;;;7.70;98.71
72409;BME280;60402;48.082;11.628;2024-03-23T05:39:21;94447.34;;;7.70;96.88
72409;BME280;60402;48.082;11.628;2024-03-23T05:42:07;94475.47;;;7.96;96.41
72409;BME280;60402;48.082;11.628;2024-03-23T05:44:53;94459.22;;;8.00;95.19
72409;BME280;60402;48.082;11.628;2024-03-23T05:47:39;94462.97;;;8.09;94.10
72409;BME280;60402;48.082;11.628;2024-03-23T05:50:25;94456.19;;;8.19;92.88
72409;BME280;60402;48.082;11.628;2024-03-23T05:53:10;94441.97;;;8.23;91.78
72409;BME280;60402;48.082;11.628;2024-03-23T05:56:03;94458.94;;;8.45;91.07
72409;BME280;60402;48.082;11.628;2024-03-23T05:58:55;94443.59;;;8.46;89.92
72409;BME280;60402;48.082;11.628;2024-03-23T06:01:40;94445.91;;;8.60;89.57
72409;BME280;60402;48.082;11.628;2024-03-23T06:04:26;94436.94;;;8.75;88.43
72409;BME280;60402;48.082;11.628;2024-03-23T06:07:12;94431.38;;;8.84;86.73
72409;BME280;60402;48.082;11.628;2024-03-23T06:09:59;94447.63;;;9.02;86.23
72409;BME280;60402;48.082;11.628;2024-03-23T06:12:48;94446.66;;;9.17;85.41
72409;BME280;60402;48.082;11.628;2024-03-23T06:15:34;94439.66;;;9.31;85.43
72409;BME280;60402;48.082;11.628;2024-03-23T06:18:23;94412.81;;;9.48;84.03
72409;BME280;60402;48.082;11.628;2024-03-23T06:21:13;94416.56;;;9.86;81.30
72409;BME280;60402;48.082;11.628;2024-03-23T06:23:59;94427.28;;;10.18;79.18
72409;BME280;60402;48.082;11.628;2024-03-23T06:26:45;94408.53;;;10.34;78.70
72409;BME280;60402;48.082;11.628;2024-03-23T06:29:30;94384.69;;;10.53;76.70
72409;BME280;60402;48.082;11.628;2024-03-23T06:32:16;94383.72;;;10.93;75.05
72409;BME280;60402;48.082;11.628;2024-03-23T06:35:02;94396.09;;;11.56;72.85
72409;BME280;60402;48.082;11.628;2024-03-23T06:37:53;94389.34;;;11.96;70.89
72409;BME280;60402;48.082;11.628;2024-03-23T06:40:39;94379.59;;;12.45;69.96
72409;BME280;60402;48.082;11.628;2024-03-23T06:43:25;94368.06;;;13.02;67.95
72409;BME280;60402;48.082;11.628;2024-03-23T06:46:10;94341.34;;;13.68;65.71
72409;BME280;60402;48.082;11.628;2024-03-23T06:48:56;94342.91;;;14.04;64.01
72409;BME280;60402;48.082;11.628;2024-03-23T06:51:42;94323.78;;;13.84;62.39
72409;BME280;60402;48.082;11.628;2024-03-23T06:54:27;94346.97;;;13.47;63.31
72409;BME280;60402;48.082;11.628;2024-03-23T06:57:13;94291.94;;;15.34;58.60
72409;BME280;60402;48.082;11.628;2024-03-23T06:59:59;94345.56;;;18.25;50.98
72409;BME280;60402;48.082;11.628;2024-03-23T07:02:44;94326.50;;;19.19;47.46
72409;BME280;60402;48.082;11.628;2024-03-23T07:05:30;94347.63;;;19.57;46.02
72409;BME280;60402;48.082;11.628;2024-03-23T07:08:16;94342.72;;;20.18;45.33
72409;BME280;60402;48.082;11.628;2024-03-23T07:11:06;94313.97;;;20.54;43.83
72409;BME280;60402;48.082;11.628;2024-03-23T07:13:53;94337.63;;;20.60;43.01
72409;BME280;60402;48.082;11.628;2024-03-23T07:16:42;94320.25;;;20.96;42.28
72409;BME280;60402;48.082;11.628;2024-03-23T07:19:27;94322.84;;;22.20;40.69
72409;BME280;60402;48.082;11.628;2024-03-23T07:22:13;94325.63;;;21.42;41.43
72409;BME280;60402;48.082;11.628;2024-03-23T07:25:00;94321.41;;;20.87;42.74
72409;BME280;60402;48.082;11.628;2024-03-23T07:27:46;94308.00;;;18.68;46.14
72409;BME280;60402;48.082;11.628;2024-03-23T07:30:32;94321.75;;;17.88;48.95
72409;BME280;60402;48.082;11.628;2024-03-23T07:33:17;94324.41;;;16.76;50.90
72409;BME280;60402;48.082;11.628;2024-03-23T07:36:04;94337.63;;;16.79;51.84
72409;BME280;60402;48.082;11.628;2024-03-23T07:38:51;94356.97;;;17.18;52.40
72409;BME280;60402;48.082;11.628;2024-03-23T07:41:36;94335.47;;;17.51;50.76
72409;BME280;60402;48.082;11.628;2024-03-23T07:44:22;94350.44;;;17.01;51.45
72409;BME280;60402;48.082;11.628;2024-03-23T07:47:08;94386.81;;;16.63;53.85
72409;BME280;60402;48.082;11.628;2024-03-23T07:49:53;94370.16;;;15.70;55.49
72409;BME280;60402;48.082;11.628;2024-03-23T07:52:39;94401.91;;;15.11;59.67
72409;BME280;60402;48.082;11.628;2024-03-23T07:55:25;94408.72;;;14.38;64.96
72409;BME280;60402;48.082;11.628;2024-03-23T07:58:10;94434.13;;;13.76;71.66
72409;BME280;60402;48.082;11.628;2024-03-23T08:01:01;94432.38;;;13.64;75.02
72409;BME280;60402;48.082;11.628;2024-03-23T08:03:49;94436.22;;;13.08;79.00
72409;BME280;60402;48.082;11.628;2024-03-23T08:06:35;94464.75;;;12.89;81.91
72409;BME280;60402;48.082;11.628;2024-03-23T08:09:20;94449.75;;;12.50;85.59
72409;BME280;60402;48.082;11.628;2024-03-23T08:12:06;94488.41;;;12.38;88.35
72409;BME280;60402;48.082;11.628;2024-03-23T08:14:52;94497.78;;;12.20;90.68
72409;BME280;60402;48.082;11.628;2024-03-23T08:17:38;94490.19;;;11.84;93.89
72409;BME280;60402;48.082;11.628;2024-03-23T08:20:23;94489.81;;;11.49;98.33
72409;BME280;60402;48.082;11.628;2024-03-23T08:23:09;94451.53;;;11.11;100.00
72409;BME280;60402;48.082;11.628;2024-03-23T08:25:59;94509.66;;;11.12;100.00
72409;BME280;60402;48.082;11.628;2024-03-23T08:28:45;94492.38;;;10.83;100.00
72409;BME280;60402;48.082;11.628;2024-03-23T08:31:31;94533.34;;;10.87;100.00
72409;BME280;60402;48.082;11.628;2024-03-23T08:34:16;94465.97;;;10.40;100.00
72409;BME280;60402;48.082;11.628;2024-03-23T08:37:02;94537.09;;;10.66;100.00
72409;BME280;60402;48.082;11.628;2024-03-23T08:39:50;94469.00;;;10.14;100.00
72409;BME280;60402;48.082;11.628;2024-03-23T08:42:36;94561.53;;;10.51;100.00
72409;BME280;60402;48.082;11.628;2024-03-23T08:45:22;94516.91;;;9.96;100.00
72409;BME280;60402;48.082;11.628;2024-03-23T08:48:08;94585.16;;;10.35;100.00
72409;BME280;60402;48.082;11.628;2024-03-23T08:51:04;94601.53;;;9.87;100.00
72409;BME280;60402;48.082;11.628;2024-03-23T08:53:50;94589.53;;;9.73;100.00
72409;BME280;60402;48.082;11.628;2024-03-23T08:56:36;94584.03;;;9.48;100.00
72409;BME280;60402;48.082;11.628;2024-03-23T08:59:22;94589.38;;;9.46;100.00
72409;BME280;60402;48.082;11.628;2024-03-23T09:02:09;94615.47;;;9.37;100.00
72409;BME280;60402;48.082;11.628;2024-03-23T09:04:54;94629.13;;;9.26;100.00
72409;BME280;60402;48.082;11.628;2024-03-23T09:07:40;94620.38;;;9.24;100.00
72409;BME280;60402;48.082;11.628;2024-03-23T09:10:26;94592.06;;;8.93;100.00
72409;BME280;60402;48.082;11.628;2024-03-23T09:13:11;94627.28;;;9.10;100.00
72409;BME280;60402;48.082;11.628;2024-03-23T09:15:57;94604.44;;;8.95;100.00
72409;BME280;60402;48.082;11.628;2024-03-23T09:18:42;94613.00;;;9.05;100.00
72409;BME280;60402;48.082;11.628;2024-03-23T09:21:28;94645.53;;;9.18;100.00
72409;BME280;60402;48.082;11.628;2024-03-23T09:24:14;94621.84;;;9.16;100.00
72409;BME280;60402;48.082;11.628;2024-03-23T09:26:59;94635.13;;;9.28;100.00
72409;BME280;60402;48.082;11.628;2024-03-23T09:29:45;94631.28;;;9.22;100.00
72409;BME280;60402;48.082;11.628;2024-03-23T09:32:31;94623.09;;;9.15;100.00
72409;BME280;60402;48.082;11.628;2024-03-23T09:35:16;94627.75;;;9.09;100.00
72409;BME280;60402;48.082;11.628;2024-03-23T09:38:02;94649.66;;;9.27;100.00
72409;BME280;60402;48.082;11.628;2024-03-23T09:40:50;94669.66;;;9.19;100.00
72409;BME280;60402;48.082;11.628;2024-03-23T09:43:38;94651.88;;;8.97;100.00
72409;BME280;60402;48.082;11.628;2024-03-23T09:46:24;94665.97;;;9.10;100.00
72409;BME280;60402;48.082;11.628;2024-03-23T09:49:10;94660.72;;;8.86;100.00
72409;BME280;60402;48.082;11.628;2024-03-23T09:51:56;94689.44;;;8.94;100.00
72409;BME280;60402;48.082;11.628;2024-03-23T09:54:42;94674.69;;;8.77;100.00
72409;BME280;60402;48.082;11.628;2024-03-23T09:57:28;94697.81;;;8.72;100.00
72409;BME280;60402;48.082;11.628;2024-03-23T10:00:13;94679.22;;;8.62;100.00
72409;BME280;60402;48.082;11.628;2024-03-23T10:02:59;94717.28;;;8.66;100.00
72409;BME280;60402;48.082;11.628;2024-03-23T10:05:47;94711.75;;;8.50;100.00
72409;BME280;60402;48.082;11.628;2024-03-23T10:08:45;94701.94;;;8.42;100.00
72409;BME280;60402;48.082;11.628;2024-03-23T10:11:31;94717.50;;;8.47;100.00
72409;BME280;60402;48.082;11.628;2024-03-23T10:14:29;94720.19;;;8.37;100.00
72409;BME280;60402;48.082;11.628;2024-03-23T10:17:20;94746.34;;;8.38;100.00
72409;BME280;60402;48.082;11.628;2024-03-23T10:20:09;94712.38;;;8.16;100.00
72409;BME280;60402;48.082;11.628;2024-03-23T10:22:56;94707.53;;;8.16;100.00
72409;BME280;60402;48.082;11.628;2024-03-23T10:25:41;94728.59;;;8.25;100.00
72409;BME280;60402;48.082;11.628;2024-03-23T10:28:27;94709.63;;;8.00;100.00
72409;BME280;60402;48.082;11.628;2024-03-23T10:31:13;94721.91;;;8.06;100.00
72409;BME280;60402;48.082;11.628;2024-03-23T10:33:59;94726.91;;;8.27;100.00
72409;BME280;60402;48.082;11.628;2024-03-23T10:36:48;94709.69;;;8.25;100.00
72409;BME280;60402;48.082;11.628;2024-03-23T10:39:35;94748.59;;;8.43;100.00
72409;BME280;60402;48.082;11.628;2024-03-23T10:42:21;94732.44;;;8.31;100.00
72409;BME280;60402;48.082;11.628;2024-03-23T10:45:08;94731.41;;;8.25;100.00
72409;BME280;60402;48.082;11.628;2024-03-23T10:47:54;94765.97;;;8.25;100.00
72409;BME280;60402;48.082;11.628;2024-03-23T10:50:40;94755.91;;;8.11;100.00
72409;BME280;60402;48.082;11.628;2024-03-23T10:53:27;94802.34;;;8.32;100.00
72409;BME280;60402;48.082;11.628;2024-03-23T10:56:14;94764.56;;;7.75;100.00
72409;BME280;60402;48.082;11.628;2024-03-23T10:59:01;94810.88;;;7.71;100.00
72409;BME280;60402;48.082;11.628;2024-03-23T11:01:55;94790.88;;;7.52;100.00
72409;BME280;60402;48.082;11.628;2024-03-23T11:04:42;94797.97;;;7.73;100.00
72409;BME280;60402;48.082;11.628;2024-03-23T11:07:30;94799.00;;;7.79;100.00
72409;BME280;60402;48.082;11.628;2024-03-23T11:10:27;94794.31;;;7.60;100.00
72409;BME280;60402;48.082;11.628;2024-03-23T11:13:21;94824.25;;;7.83;100.00
72409;BME280;60402;48.082;11.628;2024-03-23T11:16:24;94821.50;;;7.79;100.00
72409;BME280;60402;48.082;11.628;2024-03-23T11:19:36;94821.19;;;7.77;100.00
72409;BME280;60402;48.082;11.628;2024-03-23T11:25:27;94830.34;;;7.94;100.00
72409;BME280;60402;48.082;11.628;2024-03-23T11:28:13;94795.88;;;7.77;100.00
72409;BME280;60402;48.082;11.628;2024-03-23T11:31:00;94802.88;;;8.14;100.00
72409;BME280;60402;48.082;11.628;2024-03-23T11:33:46;94804.34;;;8.19;100.00
72409;BME280;60402;48.082;11.628;2024-03-23T11:36:32;94776.75;;;8.14;100.00
72409;BME280;60402;48.082;11.628;2024-03-23T11:39:19;94795.41;;;8.37;100.00
72409;BME280;60402;48.082;11.628;2024-03-23T11:42:05;94796.47;;;8.27;100.00
72409;BME280;60402;48.082;11.628;2024-03-23T11:44:51;94813.13;;;8.50;100.00
72409;BME280;60402;48.082;11.628;2024-03-23T11:47:37;94787.91;;;8.17;100.00
72409;BME280;60402;48.082;11.628;2024-03-23T11:50:28;94795.84;;;8.35;100.00
72409;BME280;60402;48.082;11.628;2024-03-23T11:56:04;94743.97;;;8.07;100.00
72409;BME280;60402;48.082;11.628;2024-03-23T11:58:50;94786.59;;;8.35;100.00
72409;BME280;60402;48.082;11.628;2024-03-23T12:01:37;94796.19;;;8.37;100.00
72409;BME280;60402;48.082;11.628;2024-03-23T12:04:27;94789.16;;;8.58;100.00
72409;BME280;60402;48.082;11.628;2024-03-23T12:07:19;94815.31;;;8.72;100.00
72409;BME280;60402;48.082;11.628;2024-03-23T12:10:06;94811.38;;;8.82;100.00
72409;BME280;60402;48.082;11.628;2024-03-23T12:13:04;94792.41;;;8.69;100.00
72409;BME280;60402;48.082;11.628;2024-03-23T12:15:50;94776.31;;;8.57;100.00
72409;BME280;60402;48.082;11.628;2024-03-23T12:18:37;94773.63;;;8.66;100.00
72409;BME280;60402;48.082;11.628;2024-03-23T12:21:23;94740.63;;;8.67;100.00
72409;BME280;60402;48.082;11.628;2024-03-23T12:24:09;94773.28;;;8.90;100.00
72409;BME280;60402;48.082;11.628;2024-03-23T12:26:59;94778.47;;;8.91;100.00
72409;BME280;60402;48.082;11.628;2024-03-23T12:29:45;94734.16;;;8.41;100.00
72409;BME280;60402;48.082;11.628;2024-03-23T12:32:32;94754.03;;;8.76;100.00
72409;BME280;60402;48.082;11.628;2024-03-23T12:35:18;94746.81;;;8.87;100.00
72409;BME280;60402;48.082;11.628;2024-03-23T12:38:04;94766.50;;;8.75;100.00
72409;BME280;60402;48.082;11.628;2024-03-23T12:40:50;94755.25;;;8.87;100.00
72409;BME280;60402;48.082;11.628;2024-03-23T12:43:35;94767.66;;;8.77;100.00
72409;BME280;60402;48.082;11.628;2024-03-23T12:46:23;94733.94;;;8.61;100.00
72409;BME280;60402;48.082;11.628;2024-03-23T12:49:08;94763.47;;;8.82;100.00
72409;BME280;60402;48.082;11.628;2024-03-23T12:51:55;94794.13;;;9.18;99.79
72409;BME280;60402;48.082;11.628;2024-03-23T12:54:41;94783.53;;;9.09;99.69
72409;BME280;60402;48.082;11.628;2024-03-23T12:57:27;94766.06;;;9.02;99.37
72409;BME280;60402;48.082;11.628;2024-03-23T13:00:13;94768.00;;;9.05;100.00
72409;BME280;60402;48.082;11.628;2024-03-23T13:03:01;94771.56;;;9.31;97.46
72409;BME280;60402;48.082;11.628;2024-03-23T13:05:52;94801.19;;;9.48;99.96
72409;BME280;60402;48.082;11.628;2024-03-23T13:08:46;94748.75;;;9.51;96.92
72409;BME280;60402;48.082;11.628;2024-03-23T13:11:32;94742.47;;;9.68;96.25
72409;BME280;60402;48.082;11.628;2024-03-23T13:14:18;94755.28;;;9.82;97.16
72409;BME280;60402;48.082;11.628;2024-03-23T13:17:04;94756.44;;;9.72;87.86
72409;BME280;60402;48.082;11.628;2024-03-23T13:19:50;94763.47;;;9.67;87.61
72409;BME280;60402;48.082;11.628;2024-03-23T13:22:36;94765.88;;;9.56;80.87
72409;BME280;60402;48.082;11.628;2024-03-23T13:25:22;94760.19;;;9.21;79.85
72409;BME280;60402;48.082;11.628;2024-03-23T13:28:07;94771.44;;;9.21;79.33
72409;BME280;60402;48.082;11.628;2024-03-23T13:30:56;94739.78;;;9.17;78.49
72409;BME280;60402;48.082;11.628;2024-03-23T13:33:43;94713.78;;;9.01;81.87
72409;BME280;60402;48.082;11.628;2024-03-23T13:36:29;94726.13;;;9.16;79.12
72409;BME280;60402;48.082;11.628;2024-03-23T13:39:15;94723.09;;;9.10;79.75
72409;BME280;60402;48.082;11.628;2024-03-23T13:42:01;94726.81;;;9.07;79.02
72409;BME280;60402;48.082;11.628;2024-03-23T13:44:46;94739.91;;;8.88;81.13
72409;BME280;60402;48.082;11.628;2024-03-23T13:47:32;94761.06;;;9.31;80.69
72409;BME280;60402;48.082;11.628;2024-03-23T13:50:18;94740.03;;;8.98;81.54
72409;BME280;60402;48.082;11.628;2024-03-23T13:53:03;94682.25;;;8.55;83.19
72409;BME280;60402;48.082;11.628;2024-03-23T13:55:49;94744.09;;;8.84;82.96
72409;BME280;60402;48.082;11.628;2024-03-23T13:58:35;94770.13;;;9.01;83.73
72409;BME280;60402;48.082;11.628;2024-03-23T14:01:21;94761.91;;;8.68;84.91
72409;BME280;60402;48.082;11.628;2024-03-23T14:04:07;94773.28;;;8.77;84.81
72409;BME280;60402;48.082;11.628;2024-03-23T14:06:53;94747.13;;;8.38;87.34
72409;BME280;60402;48.082;11.628;2024-03-23T14:09:39;94787.03;;;8.62;87.88
72409;BME280;60402;48.082;11.628;2024-03-23T14:12:24;94770.47;;;8.23;93.84
72409;BME280;60402;48.082;11.628;2024-03-23T14:15:11;94801.09;;;7.62;98.32
72409;BME280;60402;48.082;11.628;2024-03-23T14:17:57;94809.75;;;6.86;100.00
72409;BME280;60402;48.082;11.628;2024-03-23T14:20:42;94790.81;;;6.74;100.00
72409;BME280;60402;48.082;11.628;2024-03-23T14:23:30;94808.69;;;6.64;100.00
72409;BME280;60402;48.082;11.628;2024-03-23T14:26:16;94805.97;;;6.60;100.00
72409;BME280;60402;48.082;11.628;2024-03-23T14:29:01;94802.09;;;6.54;100.00
72409;BME280;60402;48.082;11.628;2024-03-23T14:31:48;94818.88;;;6.74;100.00
72409;BME280;60402;48.082;11.628;2024-03-23T14:34:35;94808.50;;;6.55;100.00
72409;BME280;60402;48.082;11.628;2024-03-23T14:37:20;94807.34;;;6.52;100.00
72409;BME280;60402;48.082;11.628;2024-03-23T14:40:06;94828.41;;;6.60;100.00
72409;BME280;60402;48.082;11.628;2024-03-23T14:42:53;94792.84;;;6.54;100.00
72409;BME280;60402;48.082;11.628;2024-03-23T14:46:05;94825.44;;;6.68;100.00
72409;BME280;60402;48.082;11.628;2024-03-23T14:48:51;94833.19;;;6.63;100.00
72409;BME280;60402;48.082;11.628;2024-03-23T14:51:37;94825.53;;;6.44;100.00
72409;BME280;60402;48.082;11.628;2024-03-23T14:54:22;94864.97;;;6.57;100.00
72409;BME280;60402;48.082;11.628;2024-03-23T14:57:08;94855.72;;;6.40;100.00
72409;BME280;60402;48.082;11.628;2024-03-23T14:59:56;94862.91;;;6.41;100.00
72409;BME280;60402;48.082;11.628;2024-03-23T15:02:42;94876.28;;;6.33;100.00
72409;BME280;60402;48.082;11.628;2024-03-23T15:05:27;94875.41;;;5.97;100.00
72409;BME280;60402;48.082;11.628;2024-03-23T15:08:13;94908.50;;;6.05;100.00
72409;BME280;60402;48.082;11.628;2024-03-23T15:11:01;94888.50;;;6.03;100.00
72409;BME280;60402;48.082;11.628;2024-03-23T15:13:50;94889.78;;;5.75;100.00
72409;BME280;60402;48.082;11.628;2024-03-23T15:16:36;94874.06;;;5.81;100.00
72409;BME280;60402;48.082;11.628;2024-03-23T15:19:22;94870.97;;;5.76;100.00
72409;BME280;60402;48.082;11.628;2024-03-23T15:22:08;94854.38;;;5.85;100.00
72409;BME280;60402;48.082;11.628;2024-03-23T15:24:54;94843.50;;;5.87;100.00
72409;BME280;60402;48.082;11.628;2024-03-23T15:27:40;94847.69;;;5.79;100.00
72409;BME280;60402;48.082;11.628;2024-03-23T15:30:29;94837.81;;;5.71;100.00
72409;BME280;60402;48.082;11.628;2024-03-23T15:33:15;94851.06;;;5.90;100.00
72409;BME280;60402;48.082;11.628;2024-03-23T15:36:01;94840.03;;;6.03;100.00